Yoshu Maru No.1 — JG4805 — position and weather

sailwx.info

Track history (hours):
 
Tides and Currents Weather Stations Pressure Air Temp Water Temp Dewpoint Dewpoint Depression Visibility Wind Speed Wind Dir Waves Ship Positions

Yoshu Maru No.1

Last reported at 2017-Nov-18 13:29 UTC. Time now 2017-Nov-22 18:35 UTC.
Position N 34°48' E 139°19'.

Length 135 m; draft 5.5 m.

Type: Cargo ship. MMSI: 432756000.

Date/timePositionNaut miles runAvg speedWind from/ knotsBaromVisibWave heightAir tempDewpointWater temp
2017-Nov-18 13:29N 34°48' E 139°19'813.8
2017-Nov-18 12:54N 34°53' E 139°27'614.3
2017-Nov-18 12:30N 34°58' E 139°32'714.8
2017-Nov-18 12:01N 35°03' E 139°38'714.4
2017-Nov-18 11:31N 35°08' E 139°44'714.4
2017-Nov-18 11:00N 35°15' E 139°46'612.9
2017-Nov-18 10:30N 35°21' E 139°42'714.4
2017-Nov-18 10:00N 35°27' E 139°46'3 6.3
2017-Nov-18 09:30N 35°30' E 139°46'2 3.0
2017-Nov-18 08:59N 35°30' E 139°44'0 0.0
2017-Nov-18 08:29N 35°30' E 139°44'0 0.0
2017-Nov-18 07:59N 35°30' E 139°44'0 0.0
2017-Nov-18 07:29N 35°30' E 139°44'0 0.0
2017-Nov-18 06:59N 35°30' E 139°44'0 0.0
2017-Nov-18 06:29N 35°30' E 139°44'0 0.0
2017-Nov-18 05:59N 35°30' E 139°44'0 0.0
2017-Nov-18 05:29N 35°30' E 139°44'0 0.0
2017-Nov-18 04:59N 35°30' E 139°44'0 0.0
2017-Nov-18 04:26N 35°30' E 139°44'0 0.0
2017-Nov-18 03:59N 35°30' E 139°44'0 0.0
2017-Nov-18 03:29N 35°30' E 139°44'0 0.0
2017-Nov-18 02:59N 35°30' E 139°44'0 0.0
2017-Nov-18 02:29N 35°30' E 139°44'0 0.0
2017-Nov-18 01:59N 35°30' E 139°44'0 0.0
2017-Nov-18 01:17N 35°30' E 139°44'0 0.0
2017-Nov-18 00:59N 35°30' E 139°44'0 0.0
2017-Nov-18 00:29N 35°30' E 139°44'0 0.0
2017-Nov-17 23:59N 35°30' E 139°44'0 0.0
2017-Nov-17 23:29N 35°30' E 139°44'0 0.0
2017-Nov-17 22:59N 35°30' E 139°44'2 4.4
2017-Nov-17 22:31N 35°29' E 139°42'5 9.8
2017-Nov-17 22:00N 35°24' E 139°44'2 3.1
2017-Nov-17 21:30N 35°22' E 139°44'0 0.0
2017-Nov-17 21:00N 35°22' E 139°44'0 0.0
2017-Nov-17 20:30N 35°22' E 139°44'0 0.1
2017-Nov-17 20:00N 35°22' E 139°44'0 0.0
2017-Nov-17 19:30N 35°22' E 139°44'0 0.1
2017-Nov-17 19:00N 35°22' E 139°44'0 0.1
2017-Nov-17 18:27N 35°22' E 139°44'0 0.0
2017-Nov-17 18:00N 35°22' E 139°44'0 0.1
2017-Nov-17 17:27N 35°22' E 139°44'0 0.0
2017-Nov-17 17:00N 35°22' E 139°44'0 0.0
2017-Nov-17 16:30N 35°23' E 139°44'0 0.0
2017-Nov-17 16:00N 35°23' E 139°44'0 0.3
2017-Nov-17 15:30N 35°22' E 139°44'1 2.1
2017-Nov-17 15:00N 35°21' E 139°44'510.6
2017-Nov-17 14:31N 35°16' E 139°46'612.4
2017-Nov-17 14:01N 35°10' E 139°46'612.7
2017-Nov-17 13:30N 35°04' E 139°44'713.1
2017-Nov-17 13:01N 34°60' E 139°38'713.2
2017-Nov-17 12:28N 34°56' E 139°31'  
2017-Nov-11 16:07N 34°54' E 139°25'213.9
2017-Nov-11 15:59N 34°56' E 139°26'613.7
2017-Nov-11 15:30N 34°60' E 139°32'714.2
2017-Nov-11 15:00N 35°04' E 139°39'714.2
2017-Nov-11 14:30N 35°10' E 139°45'613.0
2017-Nov-11 14:00N 35°16' E 139°46'612.1
2017-Nov-11 13:30N 35°21' E 139°42'4 8.9
2017-Nov-11 13:00N 35°26' E 139°41'0 0.1
2017-Nov-11 12:29N 35°26' E 139°41'0 0.0
2017-Nov-11 11:59N 35°26' E 139°41'0 0.0
2017-Nov-11 11:29N 35°26' E 139°41'0 0.0
2017-Nov-11 10:59N 35°26' E 139°41'0 0.0
2017-Nov-11 10:29N 35°26' E 139°41'0 0.0
2017-Nov-11 09:59N 35°26' E 139°41'0 0.0
2017-Nov-11 09:29N 35°26' E 139°41'0 0.0
2017-Nov-11 08:59N 35°26' E 139°41'0 0.0
2017-Nov-11 08:23N 35°26' E 139°41'0 0.0
2017-Nov-11 08:00N 35°26' E 139°41'3 6.5
2017-Nov-11 07:30N 35°24' E 139°45'0 0.4
2017-Nov-11 06:59N 35°24' E 139°45'0 0.0
2017-Nov-11 06:29N 35°24' E 139°45'0 0.0
2017-Nov-11 05:59N 35°24' E 139°45'0 0.0
2017-Nov-11 05:29N 35°24' E 139°45'0 0.0
2017-Nov-11 04:59N 35°24' E 139°45'0 0.1
2017-Nov-11 04:29N 35°24' E 139°45'0 0.0
2017-Nov-11 03:59N 35°24' E 139°45'0 0.0
2017-Nov-11 03:27N 35°24' E 139°45'0 0.0
2017-Nov-11 02:59N 35°24' E 139°45'0 0.0
2017-Nov-11 02:31N 35°24' E 139°45'0 0.0
2017-Nov-11 01:59N 35°24' E 139°45'0 0.1
2017-Nov-11 01:30N 35°24' E 139°45'0 0.2
2017-Nov-11 00:59N 35°24' E 139°45'0 0.1
2017-Nov-11 00:31N 35°24' E 139°45'0 0.0
2017-Nov-11 00:00N 35°24' E 139°45'0 0.0
2017-Nov-10 23:21N 35°24' E 139°45'0 0.0
2017-Nov-10 23:00N 35°24' E 139°45'0 0.0
2017-Nov-10 22:30N 35°24' E 139°45'0 0.0
2017-Nov-10 22:00N 35°24' E 139°45'0 0.0
2017-Nov-10 21:30N 35°24' E 139°45'0 0.0
2017-Nov-10 21:00N 35°24' E 139°45'0 0.0
2017-Nov-10 20:30N 35°24' E 139°45'0 0.1
2017-Nov-10 20:00N 35°24' E 139°45'0 0.1
2017-Nov-10 19:30N 35°24' E 139°45'0 0.0
2017-Nov-10 18:57N 35°24' E 139°45'0 0.0
2017-Nov-10 18:30N 35°24' E 139°45'0 0.1
2017-Nov-10 17:59N 35°24' E 139°45'0 0.1
2017-Nov-10 17:26N 35°24' E 139°45'0 0.0
2017-Nov-10 17:00N 35°24' E 139°45'0 0.0
2017-Nov-10 16:25N 35°24' E 139°45'0 0.0
2017-Nov-10 15:55N 35°24' E 139°45'0 0.0
2017-Nov-10 15:28N 35°24' E 139°45'0 0.0
2017-Nov-10 14:55N 35°24' E 139°45'0 0.1
2017-Nov-10 14:28N 35°24' E 139°45'0 0.0
2017-Nov-10 13:58N 35°24' E 139°45'0 0.1
2017-Nov-10 13:28N 35°24' E 139°45'0 0.0
2017-Nov-10 12:58N 35°24' E 139°45'0 0.0
2017-Nov-10 12:28N 35°24' E 139°45'0 0.0
2017-Nov-10 11:58N 35°24' E 139°45'0 0.0
2017-Nov-10 11:22N 35°24' E 139°45'0 0.0
2017-Nov-10 10:58N 35°24' E 139°45'0 0.1
2017-Nov-10 10:25N 35°24' E 139°45'0 0.0
2017-Nov-10 09:58N 35°24' E 139°45'0 0.0
2017-Nov-10 09:22N 35°24' E 139°45'0 0.0
2017-Nov-10 08:58N 35°24' E 139°45'0 0.0
2017-Nov-10 08:28N 35°24' E 139°45'0 0.0
2017-Nov-10 07:55N 35°24' E 139°45'0 0.0
2017-Nov-10 07:28N 35°24' E 139°45'0 0.2
2017-Nov-10 07:01N 35°24' E 139°45'4 8.2
2017-Nov-10 06:30N 35°28' E 139°47'3 5.8
2017-Nov-10 06:00N 35°30' E 139°46'2 3.3
2017-Nov-10 05:30N 35°30' E 139°44'0 0.0
2017-Nov-10 05:00N 35°30' E 139°44'0 0.0
2017-Nov-10 04:30N 35°30' E 139°44'0 0.0
2017-Nov-10 04:00N 35°30' E 139°44'0 0.0
2017-Nov-10 03:30N 35°30' E 139°44'0 0.0
2017-Nov-10 03:00N 35°30' E 139°44'0 0.0
2017-Nov-10 02:24N 35°30' E 139°44'0 0.0
2017-Nov-10 02:00N 35°30' E 139°44'0 0.0
2017-Nov-10 01:30N 35°30' E 139°44'0 0.0
2017-Nov-10 01:00N 35°30' E 139°44'0 0.1
2017-Nov-10 00:30N 35°30' E 139°44'0 0.1
2017-Nov-10 00:00N 35°30' E 139°44'0 0.0
2017-Nov-09 23:27N 35°30' E 139°44'0 0.3
2017-Nov-09 23:00N 35°30' E 139°44'2 4.8
2017-Nov-09 22:30N 35°28' E 139°43'4 7.0
2017-Nov-09 22:00N 35°24' E 139°44'1 2.2
2017-Nov-09 21:29N 35°23' E 139°45'0 0.1
2017-Nov-09 20:59N 35°23' E 139°45'0 0.0
2017-Nov-09 20:29N 35°23' E 139°45'0 0.0
2017-Nov-09 19:59N 35°23' E 139°45'0 0.0
2017-Nov-09 19:29N 35°23' E 139°45'0 0.0
2017-Nov-09 18:59N 35°23' E 139°45'0 0.0
2017-Nov-09 18:26N 35°23' E 139°45'0 0.0
2017-Nov-09 17:59N 35°23' E 139°45'0 0.0
2017-Nov-09 17:29N 35°23' E 139°45'0 0.0
2017-Nov-09 16:59N 35°23' E 139°45'0 0.0
2017-Nov-09 16:29N 35°23' E 139°45'0 0.0
2017-Nov-09 15:59N 35°23' E 139°45'0 0.1
2017-Nov-09 15:29N 35°23' E 139°45'2 4.4
2017-Nov-09 15:00N 35°21' E 139°44'611.0
2017-Nov-09 14:30N 35°16' E 139°46'611.8
2017-Nov-09 14:00N 35°10' E 139°46'712.2
2017-Nov-09 13:27N 35°04' E 139°44'  
Track history (hours):
 
Tides and Currents Weather Stations Pressure Air Temp Water Temp Dewpoint Dewpoint Depression Visibility Wind Speed Wind Dir Waves Ship Positions

Yoshu Maru No.1

Last reported at 2017-Nov-18 13:29 UTC. Time now 2017-Nov-22 18:35 UTC.
Position N 34°48' E 139°19'.

Length 135 m; draft 5.5 m.

Type: Cargo ship. MMSI: 432756000.

Date/timePositionNaut miles runAvg speedWind from/ knotsBaromVisibWave heightAir tempDewpointWater temp
2017-Nov-18 13:29N 34°48' E 139°19'813.8
2017-Nov-18 12:54N 34°53' E 139°27'614.3
2017-Nov-18 12:30N 34°58' E 139°32'714.8
2017-Nov-18 12:01N 35°03' E 139°38'714.4
2017-Nov-18 11:31N 35°08' E 139°44'714.4
2017-Nov-18 11:00N 35°15' E 139°46'612.9
2017-Nov-18 10:30N 35°21' E 139°42'714.4
2017-Nov-18 10:00N 35°27' E 139°46'3 6.3
2017-Nov-18 09:30N 35°30' E 139°46'2 3.0
2017-Nov-18 08:59N 35°30' E 139°44'0 0.0
2017-Nov-18 08:29N 35°30' E 139°44'0 0.0
2017-Nov-18 07:59N 35°30' E 139°44'0 0.0
2017-Nov-18 07:29N 35°30' E 139°44'0 0.0
2017-Nov-18 06:59N 35°30' E 139°44'0 0.0
2017-Nov-18 06:29N 35°30' E 139°44'0 0.0
2017-Nov-18 05:59N 35°30' E 139°44'0 0.0
2017-Nov-18 05:29N 35°30' E 139°44'0 0.0
2017-Nov-18 04:59N 35°30' E 139°44'0 0.0
2017-Nov-18 04:26N 35°30' E 139°44'0 0.0
2017-Nov-18 03:59N 35°30' E 139°44'0 0.0
2017-Nov-18 03:29N 35°30' E 139°44'0 0.0
2017-Nov-18 02:59N 35°30' E 139°44'0 0.0
2017-Nov-18 02:29N 35°30' E 139°44'0 0.0
2017-Nov-18 01:59N 35°30' E 139°44'0 0.0
2017-Nov-18 01:17N 35°30' E 139°44'0 0.0
2017-Nov-18 00:59N 35°30' E 139°44'0 0.0
2017-Nov-18 00:29N 35°30' E 139°44'0 0.0
2017-Nov-17 23:59N 35°30' E 139°44'0 0.0
2017-Nov-17 23:29N 35°30' E 139°44'0 0.0
2017-Nov-17 22:59N 35°30' E 139°44'2 4.4
2017-Nov-17 22:31N 35°29' E 139°42'5 9.8
2017-Nov-17 22:00N 35°24' E 139°44'2 3.1
2017-Nov-17 21:30N 35°22' E 139°44'0 0.0
2017-Nov-17 21:00N 35°22' E 139°44'0 0.0
2017-Nov-17 20:30N 35°22' E 139°44'0 0.1
2017-Nov-17 20:00N 35°22' E 139°44'0 0.0
2017-Nov-17 19:30N 35°22' E 139°44'0 0.1
2017-Nov-17 19:00N 35°22' E 139°44'0 0.1
2017-Nov-17 18:27N 35°22' E 139°44'0 0.0
2017-Nov-17 18:00N 35°22' E 139°44'0 0.1
2017-Nov-17 17:27N 35°22' E 139°44'0 0.0
2017-Nov-17 17:00N 35°22' E 139°44'0 0.0
2017-Nov-17 16:30N 35°23' E 139°44'0 0.0
2017-Nov-17 16:00N 35°23' E 139°44'0 0.3
2017-Nov-17 15:30N 35°22' E 139°44'1 2.1
2017-Nov-17 15:00N 35°21' E 139°44'510.6
2017-Nov-17 14:31N 35°16' E 139°46'612.4
2017-Nov-17 14:01N 35°10' E 139°46'612.7
2017-Nov-17 13:30N 35°04' E 139°44'713.1
2017-Nov-17 13:01N 34°60' E 139°38'713.2
2017-Nov-17 12:28N 34°56' E 139°31'  
2017-Nov-11 16:07N 34°54' E 139°25'213.9
2017-Nov-11 15:59N 34°56' E 139°26'613.7
2017-Nov-11 15:30N 34°60' E 139°32'714.2
2017-Nov-11 15:00N 35°04' E 139°39'714.2
2017-Nov-11 14:30N 35°10' E 139°45'613.0
2017-Nov-11 14:00N 35°16' E 139°46'612.1
2017-Nov-11 13:30N 35°21' E 139°42'4 8.9
2017-Nov-11 13:00N 35°26' E 139°41'0 0.1
2017-Nov-11 12:29N 35°26' E 139°41'0 0.0
2017-Nov-11 11:59N 35°26' E 139°41'0 0.0
2017-Nov-11 11:29N 35°26' E 139°41'0 0.0
2017-Nov-11 10:59N 35°26' E 139°41'0 0.0
2017-Nov-11 10:29N 35°26' E 139°41'0 0.0
2017-Nov-11 09:59N 35°26' E 139°41'0 0.0
2017-Nov-11 09:29N 35°26' E 139°41'0 0.0
2017-Nov-11 08:59N 35°26' E 139°41'0 0.0
2017-Nov-11 08:23N 35°26' E 139°41'0 0.0
2017-Nov-11 08:00N 35°26' E 139°41'3 6.5
2017-Nov-11 07:30N 35°24' E 139°45'0 0.4
2017-Nov-11 06:59N 35°24' E 139°45'0 0.0
2017-Nov-11 06:29N 35°24' E 139°45'0 0.0
2017-Nov-11 05:59N 35°24' E 139°45'0 0.0
2017-Nov-11 05:29N 35°24' E 139°45'0 0.0
2017-Nov-11 04:59N 35°24' E 139°45'0 0.1
2017-Nov-11 04:29N 35°24' E 139°45'0 0.0
2017-Nov-11 03:59N 35°24' E 139°45'0 0.0
2017-Nov-11 03:27N 35°24' E 139°45'0 0.0
2017-Nov-11 02:59N 35°24' E 139°45'0 0.0
2017-Nov-11 02:31N 35°24' E 139°45'0 0.0
2017-Nov-11 01:59N 35°24' E 139°45'0 0.1
2017-Nov-11 01:30N 35°24' E 139°45'0 0.2
2017-Nov-11 00:59N 35°24' E 139°45'0 0.1
2017-Nov-11 00:31N 35°24' E 139°45'0 0.0
2017-Nov-11 00:00N 35°24' E 139°45'0 0.0
2017-Nov-10 23:21N 35°24' E 139°45'0 0.0
2017-Nov-10 23:00N 35°24' E 139°45'0 0.0
2017-Nov-10 22:30N 35°24' E 139°45'0 0.0
2017-Nov-10 22:00N 35°24' E 139°45'0 0.0
2017-Nov-10 21:30N 35°24' E 139°45'0 0.0
2017-Nov-10 21:00N 35°24' E 139°45'0 0.0
2017-Nov-10 20:30N 35°24' E 139°45'0 0.1
2017-Nov-10 20:00N 35°24' E 139°45'0 0.1
2017-Nov-10 19:30N 35°24' E 139°45'0 0.0
2017-Nov-10 18:57N 35°24' E 139°45'0 0.0
2017-Nov-10 18:30N 35°24' E 139°45'0 0.1
2017-Nov-10 17:59N 35°24' E 139°45'0 0.1
2017-Nov-10 17:26N 35°24' E 139°45'0 0.0
2017-Nov-10 17:00N 35°24' E 139°45'0 0.0
2017-Nov-10 16:25N 35°24' E 139°45'0 0.0
2017-Nov-10 15:55N 35°24' E 139°45'0 0.0
2017-Nov-10 15:28N 35°24' E 139°45'0 0.0
2017-Nov-10 14:55N 35°24' E 139°45'0 0.1
2017-Nov-10 14:28N 35°24' E 139°45'0 0.0
2017-Nov-10 13:58N 35°24' E 139°45'0 0.1
2017-Nov-10 13:28N 35°24' E 139°45'0 0.0
2017-Nov-10 12:58N 35°24' E 139°45'0 0.0
2017-Nov-10 12:28N 35°24' E 139°45'0 0.0
2017-Nov-10 11:58N 35°24' E 139°45'0 0.0
2017-Nov-10 11:22N 35°24' E 139°45'0 0.0
2017-Nov-10 10:58N 35°24' E 139°45'0 0.1
2017-Nov-10 10:25N 35°24' E 139°45'0 0.0
2017-Nov-10 09:58N 35°24' E 139°45'0 0.0
2017-Nov-10 09:22N 35°24' E 139°45'0 0.0
2017-Nov-10 08:58N 35°24' E 139°45'0 0.0
2017-Nov-10 08:28N 35°24' E 139°45'0 0.0
2017-Nov-10 07:55N 35°24' E 139°45'0 0.0
2017-Nov-10 07:28N 35°24' E 139°45'0 0.2
2017-Nov-10 07:01N 35°24' E 139°45'4 8.2
2017-Nov-10 06:30N 35°28' E 139°47'3 5.8
2017-Nov-10 06:00N 35°30' E 139°46'2 3.3
2017-Nov-10 05:30N 35°30' E 139°44'0 0.0
2017-Nov-10 05:00N 35°30' E 139°44'0 0.0
2017-Nov-10 04:30N 35°30' E 139°44'0 0.0
2017-Nov-10 04:00N 35°30' E 139°44'0 0.0
2017-Nov-10 03:30N 35°30' E 139°44'0 0.0
2017-Nov-10 03:00N 35°30' E 139°44'0 0.0
2017-Nov-10 02:24N 35°30' E 139°44'0 0.0
2017-Nov-10 02:00N 35°30' E 139°44'0 0.0
2017-Nov-10 01:30N 35°30' E 139°44'0 0.0
2017-Nov-10 01:00N 35°30' E 139°44'0 0.1
2017-Nov-10 00:30N 35°30' E 139°44'0 0.1
2017-Nov-10 00:00N 35°30' E 139°44'0 0.0
2017-Nov-09 23:27N 35°30' E 139°44'0 0.3
2017-Nov-09 23:00N 35°30' E 139°44'2 4.8
2017-Nov-09 22:30N 35°28' E 139°43'4 7.0
2017-Nov-09 22:00N 35°24' E 139°44'1 2.2
2017-Nov-09 21:29N 35°23' E 139°45'0 0.1
2017-Nov-09 20:59N 35°23' E 139°45'0 0.0
2017-Nov-09 20:29N 35°23' E 139°45'0 0.0
2017-Nov-09 19:59N 35°23' E 139°45'0 0.0
2017-Nov-09 19:29N 35°23' E 139°45'0 0.0
2017-Nov-09 18:59N 35°23' E 139°45'0 0.0
2017-Nov-09 18:26N 35°23' E 139°45'0 0.0
2017-Nov-09 17:59N 35°23' E 139°45'0 0.0
2017-Nov-09 17:29N 35°23' E 139°45'0 0.0
2017-Nov-09 16:59N 35°23' E 139°45'0 0.0
2017-Nov-09 16:29N 35°23' E 139°45'0 0.0
2017-Nov-09 15:59N 35°23' E 139°45'0 0.1
2017-Nov-09 15:29N 35°23' E 139°45'2 4.4
2017-Nov-09 15:00N 35°21' E 139°44'611.0
2017-Nov-09 14:30N 35°16' E 139°46'611.8
2017-Nov-09 14:00N 35°10' E 139°46'712.2
2017-Nov-09 13:27N 35°04' E 139°44'  

Dump ship's entire track history